createdAt,value
2023-07-17T05:40:45.960Z,19.70
2023-07-17T05:45:49.347Z,19.90
2023-07-17T05:50:53.021Z,20.10
2023-07-17T05:55:57.922Z,20.60
2023-07-17T06:01:01.456Z,22.70
2023-07-17T06:06:08.213Z,25.20
2023-07-17T06:11:14.829Z,24.50
2023-07-17T06:16:19.663Z,24.50
2023-07-17T06:21:24.156Z,28.50
2023-07-17T06:26:28.864Z,31.30
2023-07-17T06:31:32.369Z,31.50
2023-07-17T06:36:35.772Z,30.10
2023-07-17T06:41:40.523Z,29.70
2023-07-17T06:46:44.926Z,32.00
2023-07-17T06:51:49.963Z,35.10
2023-07-17T06:56:54.889Z,36.00
2023-07-17T07:01:59.084Z,36.30
2023-07-17T07:07:02.713Z,37.50
2023-07-17T07:12:13.979Z,38.20
2023-07-17T07:17:18.356Z,38.50
2023-07-17T07:22:23.092Z,37.70
2023-07-17T07:27:32.438Z,37.70
2023-07-17T07:32:38.178Z,37.70
2023-07-17T07:37:42.508Z,38.20
2023-07-17T07:42:47.688Z,37.10
2023-07-17T07:47:51.155Z,36.70
2023-07-17T07:52:56.546Z,36.90
2023-07-17T07:58:01.409Z,36.80
2023-07-17T08:03:06.708Z,36.90
2023-07-17T08:08:10.203Z,36.30
2023-07-17T08:13:15.082Z,36.30
2023-07-17T08:18:30.894Z,36.70
2023-07-17T08:23:34.258Z,35.80
2023-07-17T08:28:39.149Z,35.10
2023-07-17T08:33:42.552Z,35.70
2023-07-17T08:38:45.972Z,34.30
2023-07-17T08:43:51.461Z,33.70
2023-07-17T08:48:56.600Z,35.10
2023-07-17T08:54:13.485Z,35.50
2023-07-17T08:59:26.267Z,35.50
2023-07-17T09:04:33.133Z,34.30
2023-07-17T09:09:36.701Z,33.40
2023-07-17T09:14:42.023Z,32.40
2023-07-17T09:19:49.192Z,32.10
2023-07-17T09:24:58.159Z,31.10
2023-07-17T09:30:10.839Z,32.60
2023-07-17T09:35:15.166Z,32.90
2023-07-17T09:40:19.988Z,33.60
2023-07-17T09:45:26.197Z,33.40
2023-07-17T09:50:37.521Z,33.40
2023-07-17T09:55:42.936Z,33.70
2023-07-17T10:00:51.269Z,32.80
2023-07-17T10:05:59.763Z,32.40
2023-07-17T10:11:06.885Z,32.30
2023-07-17T10:16:23.765Z,32.40
2023-07-17T10:21:28.996Z,32.00
2023-07-17T10:26:33.453Z,31.40
2023-07-17T10:31:50.633Z,31.00
2023-07-17T10:36:54.141Z,30.10
2023-07-17T10:41:57.625Z,29.80
2023-07-17T10:47:02.424Z,29.10
2023-07-17T10:52:08.200Z,28.60
2023-07-17T10:57:12.085Z,28.60
2023-07-17T11:02:18.052Z,29.00
2023-07-17T11:07:22.497Z,30.00
2023-07-17T11:12:27.790Z,29.90
2023-07-17T11:17:34.408Z,29.70
2023-07-17T11:22:42.094Z,29.10
2023-07-17T11:27:48.107Z,28.50
2023-07-17T11:33:10.727Z,28.20
2023-07-17T11:38:16.566Z,29.60
2023-07-17T11:43:32.133Z,28.90
2023-07-17T11:48:40.462Z,28.60
2023-07-17T11:53:54.973Z,29.00
2023-07-17T11:58:58.349Z,29.60
2023-07-17T12:04:21.658Z,29.90
2023-07-17T12:09:25.738Z,29.80
2023-07-17T12:14:30.301Z,29.70
2023-07-17T12:19:35.175Z,29.30
2023-07-17T12:24:39.581Z,28.70
2023-07-17T12:29:43.021Z,28.00
2023-07-17T12:34:50.659Z,27.40
2023-07-17T12:39:55.476Z,27.30
2023-07-17T12:45:01.006Z,27.20
2023-07-17T12:50:06.777Z,27.00
2023-07-17T12:55:11.123Z,27.20
2023-07-17T13:00:15.498Z,27.30
2023-07-17T13:05:21.460Z,27.30
2023-07-17T13:10:25.163Z,27.50
2023-07-17T13:15:32.021Z,28.30
2023-07-17T13:20:37.008Z,29.00
2023-07-17T13:25:43.542Z,29.40
2023-07-17T13:31:03.535Z,29.00
2023-07-17T13:36:12.859Z,28.60
2023-07-17T13:42:00.672Z,28.30
2023-07-17T13:47:17.209Z,28.20
2023-07-17T13:52:25.836Z,28.10
2023-07-17T13:57:30.265Z,27.80
2023-07-17T14:02:40.698Z,27.20
2023-07-17T14:07:47.868Z,26.90
2023-07-17T14:12:56.389Z,26.60
2023-07-17T14:18:01.624Z,26.50
2023-07-17T14:23:27.281Z,26.40
2023-07-17T14:28:42.741Z,26.60
2023-07-17T14:34:30.226Z,27.00
2023-07-17T14:39:52.492Z,28.10
2023-07-17T14:44:57.751Z,28.30
2023-07-17T14:50:08.388Z,28.50
2023-07-17T14:55:13.213Z,28.50
2023-07-17T15:00:17.618Z,28.10
2023-07-17T15:05:21.682Z,28.10
2023-07-17T15:10:27.651Z,27.80
2023-07-17T15:15:33.426Z,27.40
2023-07-17T15:20:37.050Z,26.90
2023-07-17T15:25:43.990Z,27.00
2023-07-17T15:30:49.584Z,27.20
2023-07-17T15:35:53.039Z,27.40
2023-07-17T15:40:59.264Z,27.90
2023-07-17T15:46:04.832Z,27.70
2023-07-17T15:51:08.397Z,27.60
2023-07-17T15:56:15.527Z,27.50
2023-07-17T16:01:20.334Z,27.30
2023-07-17T16:06:30.713Z,27.10
2023-07-17T16:12:01.348Z,26.50
2023-07-17T16:17:10.651Z,26.50
2023-07-17T16:22:16.179Z,26.30
2023-07-17T16:27:22.015Z,26.00
2023-07-17T16:32:25.668Z,26.20
2023-07-17T16:37:29.059Z,26.30
2023-07-17T16:42:33.940Z,26.30
2023-07-17T16:47:37.412Z,26.20
2023-07-17T16:52:40.906Z,25.80
2023-07-17T16:57:45.789Z,25.20
2023-07-17T17:02:50.295Z,25.20
2023-07-17T17:07:53.911Z,25.40
2023-07-17T17:12:58.901Z,25.20
2023-07-17T17:18:05.859Z,25.20
2023-07-17T17:23:11.525Z,25.10
2023-07-17T17:28:17.353Z,25.00
2023-07-17T17:33:22.954Z,24.80
2023-07-17T17:38:26.632Z,24.70
2023-07-17T17:43:31.475Z,24.60
2023-07-17T17:48:35.055Z,24.50
2023-07-17T17:53:38.560Z,24.40
2023-07-17T17:58:43.448Z,24.20
2023-07-17T18:03:53.793Z,24.10
2023-07-17T18:08:57.564Z,24.00
2023-07-17T18:14:09.332Z,23.80
2023-07-17T18:19:14.870Z,23.60
2023-07-17T18:24:18.296Z,23.40
2023-07-17T18:29:23.088Z,23.30
2023-07-17T18:34:27.669Z,23.10
2023-07-17T18:39:31.160Z,22.90
2023-07-17T18:44:37.262Z,22.70
2023-07-17T18:49:42.655Z,22.60
2023-07-17T18:54:46.379Z,22.40
2023-07-17T18:59:51.245Z,22.20
2023-07-17T19:04:55.676Z,21.90
2023-07-17T19:10:01.149Z,21.60
2023-07-17T19:15:08.330Z,21.40
2023-07-17T19:20:14.532Z,21.30
2023-07-17T19:25:18.048Z,21.10
2023-07-17T19:30:24.495Z,20.80
2023-07-17T19:35:28.869Z,20.60
